createdAt,value
2022-11-29T00:00:51.163Z,9.76
2022-11-29T00:01:54.288Z,9.78
2022-11-29T00:02:57.407Z,9.79
2022-11-29T00:04:00.268Z,9.79
2022-11-29T00:05:02.951Z,9.8
2022-11-29T00:06:05.845Z,9.8
2022-11-29T00:07:08.719Z,9.79
2022-11-29T00:08:11.334Z,9.79
2022-11-29T00:09:14.001Z,9.79
2022-11-29T00:10:16.674Z,9.77
2022-11-29T00:11:19.317Z,9.76
2022-11-29T00:12:21.972Z,9.77
2022-11-29T00:13:24.649Z,9.74
2022-11-29T00:14:27.350Z,9.72
2022-11-29T00:15:30.269Z,9.72
2022-11-29T00:16:33.100Z,9.71
2022-11-29T00:17:35.781Z,9.71
2022-11-29T00:18:38.458Z,9.7
2022-11-29T00:19:41.128Z,9.69
2022-11-29T00:20:43.773Z,9.71
2022-11-29T00:21:46.415Z,9.71
2022-11-29T00:22:49.071Z,9.72
2022-11-29T00:23:51.976Z,9.74
2022-11-29T00:24:54.601Z,9.74
2022-11-29T00:25:57.230Z,9.75
2022-11-29T00:26:59.939Z,9.74
2022-11-29T00:28:02.822Z,9.75
2022-11-29T00:29:05.703Z,9.75
2022-11-29T00:30:08.339Z,9.75
2022-11-29T00:31:11.164Z,9.74
2022-11-29T00:32:14.080Z,9.74
2022-11-29T00:33:16.703Z,9.73
2022-11-29T00:34:19.376Z,9.72
2022-11-29T00:35:22.037Z,9.72
2022-11-29T00:36:24.707Z,9.72
2022-11-29T00:37:27.371Z,9.72
2022-11-29T00:38:30.604Z,9.72
2022-11-29T00:39:33.271Z,9.73
2022-11-29T00:40:35.916Z,9.72
2022-11-29T00:41:38.563Z,9.72
2022-11-29T00:42:41.231Z,9.7
2022-11-29T00:43:43.892Z,9.69
2022-11-29T00:44:46.641Z,9.68
2022-11-29T00:45:49.417Z,9.68
2022-11-29T00:46:52.119Z,9.68
2022-11-29T00:47:54.778Z,9.67
2022-11-29T00:48:57.417Z,9.68
2022-11-29T00:50:00.025Z,9.69
2022-11-29T00:51:03.348Z,9.68
2022-11-29T00:52:06.002Z,9.69
2022-11-29T00:53:08.667Z,9.67
2022-11-29T00:54:11.306Z,9.67
2022-11-29T00:55:13.997Z,9.67
2022-11-29T00:56:16.676Z,9.65
2022-11-29T00:57:19.368Z,9.66
2022-11-29T00:58:22.003Z,9.66
2022-11-29T00:59:24.689Z,9.66
2022-11-29T01:00:27.327Z,9.66
2022-11-29T01:01:30.103Z,9.67
2022-11-29T01:02:32.952Z,9.66
2022-11-29T01:03:35.884Z,9.66
2022-11-29T01:04:38.522Z,9.67
2022-11-29T01:05:41.144Z,9.66
2022-11-29T01:06:43.835Z,9.67
2022-11-29T01:07:46.682Z,9.66
2022-11-29T01:08:49.405Z,9.67
2022-11-29T01:09:52.046Z,9.67
2022-11-29T01:10:54.759Z,9.66
2022-11-29T01:11:57.587Z,9.66
2022-11-29T01:13:00.246Z,9.66
2022-11-29T01:14:02.910Z,9.65
2022-11-29T01:15:05.553Z,9.64
2022-11-29T01:16:08.184Z,9.64
2022-11-29T01:17:10.951Z,9.62
2022-11-29T01:18:13.835Z,9.64
2022-11-29T01:19:16.519Z,9.63
2022-11-29T01:20:19.169Z,9.63
2022-11-29T01:21:22.013Z,9.63
2022-11-29T01:22:24.712Z,9.62
2022-11-29T01:23:27.374Z,9.63
2022-11-29T01:24:30.057Z,9.62
2022-11-29T01:25:32.718Z,9.62
2022-11-29T01:26:35.605Z,9.61
2022-11-29T01:27:38.270Z,9.61
2022-11-29T01:28:41.135Z,9.6
2022-11-29T01:29:43.788Z,9.59
2022-11-29T01:30:46.869Z,9.58
2022-11-29T01:31:49.602Z,9.58
2022-11-29T01:32:52.227Z,9.57
2022-11-29T01:33:54.848Z,9.57
2022-11-29T01:34:57.495Z,9.57
2022-11-29T01:36:00.077Z,9.57
2022-11-29T01:37:02.710Z,9.57
2022-11-29T01:38:06.015Z,9.56
2022-11-29T01:39:08.674Z,9.56
2022-11-29T01:40:11.292Z,9.54
2022-11-29T01:41:13.940Z,9.53
2022-11-29T01:42:16.624Z,9.54
2022-11-29T01:43:19.249Z,9.53
2022-11-29T01:44:21.926Z,9.53
2022-11-29T01:45:24.840Z,9.53
2022-11-29T01:46:27.757Z,9.51
2022-11-29T01:47:30.497Z,9.5
2022-11-29T01:48:33.153Z,9.5
2022-11-29T01:49:36.005Z,9.49
2022-11-29T01:50:38.658Z,9.49
2022-11-29T01:51:41.320Z,9.51
2022-11-29T01:52:44.012Z,9.5
2022-11-29T01:53:46.698Z,9.49
2022-11-29T01:54:49.893Z,9.51
2022-11-29T01:55:53.343Z,9.52
2022-11-29T01:56:56.134Z,9.51
2022-11-29T01:57:58.798Z,9.49
2022-11-29T01:59:01.449Z,9.5
2022-11-29T02:00:04.158Z,9.51
2022-11-29T02:01:07.010Z,9.51
2022-11-29T02:02:09.882Z,9.52
2022-11-29T02:03:12.818Z,9.53
2022-11-29T02:04:15.441Z,9.53
2022-11-29T02:05:18.094Z,9.54
2022-11-29T02:06:20.774Z,9.53
2022-11-29T02:07:23.511Z,9.54
2022-11-29T02:08:26.479Z,9.53
2022-11-29T02:09:29.205Z,9.54
2022-11-29T02:10:32.078Z,9.55
2022-11-29T02:11:34.735Z,9.55
2022-11-29T02:12:37.360Z,9.54
2022-11-29T02:13:40.019Z,9.53
2022-11-29T02:14:43.780Z,9.54
2022-11-29T02:15:47.197Z,9.55
2022-11-29T02:16:56.935Z,9.54
2022-11-29T02:17:59.175Z,9.55
2022-11-29T02:19:01.820Z,9.54
2022-11-29T02:20:04.483Z,9.54
2022-11-29T02:21:07.132Z,9.53
2022-11-29T02:22:09.777Z,9.52
2022-11-29T02:23:12.372Z,9.53
2022-11-29T02:24:15.017Z,9.54
2022-11-29T02:25:17.729Z,9.53
2022-11-29T02:26:20.613Z,9.55
2022-11-29T02:27:23.299Z,9.54
2022-11-29T02:28:25.974Z,9.55
2022-11-29T02:29:28.649Z,9.54
2022-11-29T02:30:31.683Z,9.54
2022-11-29T02:31:34.428Z,9.54
2022-11-29T02:32:37.067Z,9.53
2022-11-29T02:33:39.703Z,9.52
2022-11-29T02:34:43.400Z,9.53
2022-11-29T02:35:46.985Z,9.53
2022-11-29T02:36:49.605Z,9.53
2022-11-29T02:37:52.311Z,9.53
2022-11-29T02:38:54.978Z,9.52
2022-11-29T02:39:57.598Z,9.52
2022-11-29T02:41:00.315Z,9.53
2022-11-29T02:42:03.216Z,9.53
2022-11-29T02:43:06.037Z,9.52
2022-11-29T02:44:08.702Z,9.53
2022-11-29T02:45:11.667Z,9.51
2022-11-29T02:46:14.687Z,9.53
2022-11-29T02:47:17.353Z,9.53
2022-11-29T02:48:20.000Z,9.52
2022-11-29T02:49:22.630Z,9.5
2022-11-29T02:50:25.280Z,9.51
2022-11-29T02:51:27.934Z,9.52
2022-11-29T02:52:30.623Z,9.52
2022-11-29T02:53:33.214Z,9.53
2022-11-29T02:54:35.828Z,9.53
2022-11-29T02:55:38.469Z,9.53
2022-11-29T02:56:41.395Z,9.53
2022-11-29T02:57:44.071Z,9.5
2022-11-29T02:58:46.742Z,9.5
2022-11-29T02:59:49.384Z,9.5
2022-11-29T03:00:52.051Z,9.49
2022-11-29T03:01:55.375Z,9.49
2022-11-29T03:02:58.155Z,9.49
2022-11-29T03:04:01.063Z,9.5
2022-11-29T03:05:03.695Z,9.51
2022-11-29T03:06:06.364Z,9.52
2022-11-29T03:07:09.026Z,9.52
2022-11-29T03:08:11.694Z,9.53
2022-11-29T03:09:14.580Z,9.53
2022-11-29T03:10:17.216Z,9.51
2022-11-29T03:11:19.833Z,9.47
2022-11-29T03:12:22.548Z,9.48
2022-11-29T03:13:25.438Z,9.48
2022-11-29T03:14:28.091Z,9.49
2022-11-29T03:15:31.023Z,9.5
2022-11-29T03:16:43.409Z,9.51
2022-11-29T03:17:45.952Z,9.51
2022-11-29T03:18:48.568Z,9.5
2022-11-29T03:19:51.188Z,9.51
2022-11-29T03:20:53.844Z,9.51
2022-11-29T03:21:56.459Z,9.5
2022-11-29T03:22:59.093Z,9.5
2022-11-29T03:24:01.994Z,9.5
2022-11-29T03:25:04.630Z,9.5
2022-11-29T03:26:07.395Z,9.51
2022-11-29T03:27:10.043Z,9.5
2022-11-29T03:28:13.775Z,9.51
2022-11-29T03:29:16.639Z,9.53
2022-11-29T03:30:19.490Z,9.52
2022-11-29T03:31:22.214Z,9.52
2022-11-29T03:32:24.964Z,9.52
2022-11-29T03:33:27.705Z,9.52
2022-11-29T03:34:30.344Z,9.5
2022-11-29T03:35:32.968Z,9.51
2022-11-29T03:36:35.633Z,9.51
2022-11-29T03:37:38.252Z,9.51
2022-11-29T03:38:40.942Z,9.5
2022-11-29T03:39:43.588Z,9.49
2022-11-29T03:40:46.234Z,9.49
2022-11-29T03:41:48.896Z,9.49
2022-11-29T03:42:51.556Z,9.48
2022-11-29T03:43:54.378Z,9.49
2022-11-29T03:44:57.025Z,9.5
2022-11-29T03:46:00.039Z,9.5
2022-11-29T03:47:02.783Z,9.5
2022-11-29T03:48:05.685Z,9.5
2022-11-29T03:49:08.625Z,9.49
2022-11-29T03:50:11.251Z,9.49
2022-11-29T03:51:13.901Z,9.47
2022-11-29T03:52:16.546Z,9.47
2022-11-29T03:53:19.203Z,9.46
2022-11-29T03:54:22.525Z,9.46
2022-11-29T03:55:25.162Z,9.47
2022-11-29T03:56:27.817Z,9.46
2022-11-29T03:57:31.967Z,9.46
2022-11-29T03:58:35.046Z,9.46
2022-11-29T03:59:37.759Z,9.46
2022-11-29T04:00:40.395Z,9.45
2022-11-29T04:01:43.189Z,9.45
2022-11-29T04:02:45.996Z,9.46
2022-11-29T04:03:48.805Z,9.46
2022-11-29T04:04:51.426Z,9.46
2022-11-29T04:05:54.075Z,9.47
2022-11-29T04:06:56.714Z,9.47
2022-11-29T04:08:03.051Z,9.48
2022-11-29T04:09:05.465Z,9.47
2022-11-29T04:10:08.285Z,9.48
2022-11-29T04:11:11.286Z,9.47
2022-11-29T04:12:14.147Z,9.47
2022-11-29T04:13:16.762Z,9.48
2022-11-29T04:14:19.987Z,9.47
2022-11-29T04:15:22.779Z,9.45
2022-11-29T04:16:25.623Z,9.4
2022-11-29T04:17:28.263Z,9.38
2022-11-29T04:18:30.870Z,9.37
2022-11-29T04:19:33.536Z,9.37
2022-11-29T04:20:48.288Z,9.37
2022-11-29T04:21:50.787Z,9.36
2022-11-29T04:22:53.402Z,9.34
2022-11-29T04:23:56.064Z,9.33
2022-11-29T04:24:58.688Z,9.35
2022-11-29T04:26:01.341Z,9.35
2022-11-29T04:27:04.006Z,9.35
2022-11-29T04:28:06.636Z,9.36
2022-11-29T04:29:09.287Z,9.35
2022-11-29T04:30:11.912Z,9.34
2022-11-29T04:31:14.870Z,9.33
2022-11-29T04:32:17.652Z,9.33
2022-11-29T04:33:20.316Z,9.33
2022-11-29T04:34:23.017Z,9.36
2022-11-29T04:35:25.693Z,9.35
2022-11-29T04:36:28.333Z,9.37
2022-11-29T04:37:31.223Z,9.36
2022-11-29T04:38:33.859Z,9.38
2022-11-29T04:39:36.491Z,9.36
2022-11-29T04:40:39.182Z,9.34
2022-11-29T04:41:41.851Z,9.34
2022-11-29T04:42:44.483Z,9.36
2022-11-29T04:43:47.156Z,9.37
2022-11-29T04:44:49.815Z,9.37
2022-11-29T04:45:52.443Z,9.35
2022-11-29T04:46:55.159Z,9.3
2022-11-29T04:47:57.855Z,9.3
2022-11-29T04:49:00.497Z,9.28
2022-11-29T04:50:03.131Z,9.3
2022-11-29T04:51:05.811Z,9.32
2022-11-29T04:52:09.032Z,9.32
2022-11-29T04:53:11.668Z,9.33
2022-11-29T04:54:14.375Z,9.32
2022-11-29T04:55:30.808Z,9.32
2022-11-29T04:56:33.538Z,9.32
2022-11-29T04:57:36.133Z,9.33
2022-11-29T04:58:38.773Z,9.33
2022-11-29T04:59:41.509Z,9.32
2022-11-29T05:00:44.166Z,9.32
2022-11-29T05:01:47.194Z,9.34
2022-11-29T05:02:50.093Z,9.35
2022-11-29T05:03:57.581Z,9.37
2022-11-29T05:04:59.939Z,9.38
2022-11-29T05:06:02.585Z,9.39
2022-11-29T05:07:05.267Z,9.4
2022-11-29T05:08:07.896Z,9.42
2022-11-29T05:09:10.526Z,9.41
2022-11-29T05:10:13.393Z,9.41
2022-11-29T05:11:16.015Z,9.42
2022-11-29T05:12:18.699Z,9.42
2022-11-29T05:13:21.550Z,9.42
2022-11-29T05:14:24.184Z,9.41
2022-11-29T05:15:26.869Z,9.39
2022-11-29T05:16:29.519Z,9.39
2022-11-29T05:17:32.157Z,9.35
2022-11-29T05:18:34.865Z,9.28
2022-11-29T05:19:37.522Z,9.23
2022-11-29T05:20:40.386Z,9.2
2022-11-29T05:21:43.906Z,9.2
2022-11-29T05:22:46.514Z,9.21
2022-11-29T05:23:49.140Z,9.19
2022-11-29T05:24:51.811Z,9.17
2022-11-29T05:25:54.487Z,9.16
2022-11-29T05:26:57.149Z,9.14
2022-11-29T05:27:59.771Z,9.09
2022-11-29T05:29:05.948Z,9.05
2022-11-29T05:30:08.286Z,9.05
2022-11-29T05:31:11.110Z,9.08
2022-11-29T05:32:13.849Z,9.11
2022-11-29T05:35:16.192Z,9.16
2022-11-29T05:36:18.746Z,9.15
2022-11-29T05:37:21.373Z,9.16
2022-11-29T05:38:24.209Z,9.2
2022-11-29T05:39:26.824Z,9.21
2022-11-29T05:40:29.517Z,9.22
2022-11-29T05:41:32.144Z,9.24
2022-11-29T05:42:34.789Z,9.25
2022-11-29T05:43:37.406Z,9.27
2022-11-29T05:44:39.985Z,9.27
2022-11-29T05:45:45.851Z,9.27
2022-11-29T05:46:48.586Z,9.28
2022-11-29T05:47:51.271Z,9.29
2022-11-29T05:48:54.365Z,9.29
2022-11-29T05:49:56.985Z,9.27
2022-11-29T05:50:59.663Z,9.27
2022-11-29T05:52:02.312Z,9.27
2022-11-29T05:53:04.965Z,9.27
2022-11-29T05:54:15.526Z,9.27
2022-11-29T05:55:17.415Z,9.27
2022-11-29T05:56:20.062Z,9.27
2022-11-29T05:57:22.719Z,9.26
2022-11-29T05:58:31.053Z,9.27
2022-11-29T05:59:33.965Z,9.27
2022-11-29T06:00:40.051Z,9.27
2022-11-29T06:01:54.156Z,9.28
2022-11-29T06:02:56.637Z,9.28
2022-11-29T06:03:59.316Z,9.3
2022-11-29T06:05:01.975Z,9.31
2022-11-29T06:06:04.687Z,9.31
2022-11-29T06:07:07.383Z,9.31
2022-11-29T06:08:10.145Z,9.31
2022-11-29T06:09:12.790Z,9.32
2022-11-29T06:10:15.419Z,9.31
2022-11-29T06:11:18.285Z,9.31
2022-11-29T06:12:21.863Z,9.29
2022-11-29T06:13:24.439Z,9.28
2022-11-29T06:14:27.065Z,9.28
2022-11-29T06:15:29.717Z,9.28
2022-11-29T06:16:57.411Z,9.28
2022-11-29T06:18:00.332Z,9.29
2022-11-29T06:19:02.924Z,9.3
2022-11-29T06:20:05.814Z,9.31
2022-11-29T06:21:08.476Z,9.33
2022-11-29T06:22:11.085Z,9.33
2022-11-29T06:23:13.738Z,9.32
2022-11-29T06:24:21.923Z,9.31
2022-11-29T06:25:28.135Z,9.32
2022-11-29T06:26:30.750Z,9.32
2022-11-29T06:27:33.362Z,9.33
2022-11-29T06:28:36.011Z,9.33
2022-11-29T06:29:38.657Z,9.32
2022-11-29T06:30:41.367Z,9.32
2022-11-29T06:31:44.291Z,9.31
2022-11-29T06:32:47.080Z,9.33
2022-11-29T06:33:49.722Z,9.32
2022-11-29T06:34:52.366Z,9.34
2022-11-29T06:35:55.072Z,9.34
2022-11-29T06:36:57.894Z,9.33
2022-11-29T06:38:00.551Z,9.34
2022-11-29T06:39:03.177Z,9.34
2022-11-29T06:40:05.851Z,9.33
2022-11-29T06:41:08.732Z,9.33
2022-11-29T06:42:11.345Z,9.33
2022-11-29T06:43:14.018Z,9.34
2022-11-29T06:44:16.666Z,9.33
2022-11-29T06:45:31.217Z,9.32
2022-11-29T06:46:36.160Z,9.33
2022-11-29T06:47:38.918Z,9.31
2022-11-29T06:48:42.169Z,9.31
2022-11-29T06:49:44.873Z,9.31
2022-11-29T06:50:47.515Z,9.31
2022-11-29T06:51:50.128Z,9.33
2022-11-29T06:52:53.081Z,9.33
2022-11-29T06:53:55.713Z,9.33
2022-11-29T06:54:58.326Z,9.32
2022-11-29T06:56:00.988Z,9.33
2022-11-29T06:57:03.624Z,9.32
2022-11-29T06:58:06.264Z,9.33
2022-11-29T06:59:08.941Z,9.34
2022-11-29T07:00:11.637Z,9.34
2022-11-29T07:01:14.659Z,9.35
2022-11-29T07:02:17.525Z,9.35
2022-11-29T07:03:20.267Z,9.35
2022-11-29T07:04:22.935Z,9.36
2022-11-29T07:05:25.608Z,9.35
2022-11-29T07:06:28.233Z,9.35
2022-11-29T07:07:31.084Z,9.36
2022-11-29T07:08:33.896Z,9.37
2022-11-29T07:09:36.526Z,9.37
2022-11-29T07:10:39.199Z,9.37
2022-11-29T07:11:41.867Z,9.37
2022-11-29T07:12:52.059Z,9.36
2022-11-29T07:13:54.308Z,9.36
2022-11-29T07:14:56.898Z,9.36
2022-11-29T07:15:59.681Z,9.36
2022-11-29T07:17:02.672Z,9.36
2022-11-29T07:18:05.279Z,9.35
2022-11-29T07:19:07.902Z,9.35
2022-11-29T07:20:22.250Z,9.37
2022-11-29T07:21:24.424Z,9.35
2022-11-29T07:22:27.022Z,9.36
2022-11-29T07:23:29.763Z,9.35
2022-11-29T07:24:32.446Z,9.34
2022-11-29T07:25:35.102Z,9.34
2022-11-29T07:26:37.755Z,9.35
2022-11-29T07:27:40.401Z,9.36
2022-11-29T07:28:43.048Z,9.37
2022-11-29T07:29:45.671Z,9.35
2022-11-29T07:30:48.343Z,9.34
2022-11-29T07:31:51.260Z,9.3
2022-11-29T07:33:00.925Z,9.3
2022-11-29T07:34:03.832Z,9.29
2022-11-29T07:35:06.406Z,9.3
2022-11-29T07:36:09.017Z,9.3
2022-11-29T07:37:11.705Z,9.3
2022-11-29T07:38:14.377Z,9.31
2022-11-29T07:39:17.024Z,9.31
2022-11-29T07:40:25.599Z,9.3
2022-11-29T07:41:41.506Z,9.3
2022-11-29T07:42:43.913Z,9.3
2022-11-29T07:43:46.559Z,9.31
2022-11-29T07:45:05.890Z,9.33
2022-11-29T07:46:10.069Z,9.33
2022-11-29T07:47:12.689Z,9.32
2022-11-29T07:48:15.294Z,9.33
2022-11-29T07:49:18.382Z,9.31
2022-11-29T07:50:21.241Z,9.27
2022-11-29T07:51:23.919Z,9.26
2022-11-29T07:52:26.573Z,9.26
2022-11-29T07:53:29.206Z,9.26
2022-11-29T07:54:31.892Z,9.27
2022-11-29T07:55:39.127Z,9.25
2022-11-29T07:56:41.432Z,9.26
2022-11-29T07:57:44.079Z,9.25
2022-11-29T07:58:46.933Z,9.25
2022-11-29T07:59:49.714Z,9.25
2022-11-29T08:00:52.504Z,9.28
2022-11-29T08:01:55.450Z,9.28
2022-11-29T08:02:58.078Z,9.29
2022-11-29T08:04:01.313Z,9.28
2022-11-29T08:05:03.909Z,9.29
2022-11-29T08:06:06.519Z,9.29
2022-11-29T08:07:09.177Z,9.29
2022-11-29T08:08:11.832Z,9.29
2022-11-29T08:09:14.424Z,9.28
2022-11-29T08:10:17.084Z,9.28
2022-11-29T08:11:19.802Z,9.25
2022-11-29T08:12:22.417Z,9.25
2022-11-29T08:13:25.038Z,9.25
2022-11-29T08:14:27.678Z,9.26
2022-11-29T08:15:30.367Z,9.25
2022-11-29T08:16:33.205Z,9.24
2022-11-29T08:17:36.208Z,9.25
2022-11-29T08:18:39.034Z,9.28
2022-11-29T08:19:41.707Z,9.31
2022-11-29T08:20:44.363Z,9.32
2022-11-29T08:21:47.067Z,9.35
2022-11-29T08:22:49.709Z,9.37
2022-11-29T08:23:52.644Z,9.37
2022-11-29T08:24:55.306Z,9.4
2022-11-29T08:25:58.149Z,9.39
2022-11-29T08:27:01.062Z,9.42
2022-11-29T08:28:03.678Z,9.43
2022-11-29T08:29:06.337Z,9.44
2022-11-29T08:30:08.990Z,9.45
2022-11-29T08:31:11.966Z,9.46
2022-11-29T08:32:14.657Z,9.48
2022-11-29T08:33:17.286Z,9.5
2022-11-29T08:34:19.944Z,9.52
2022-11-29T08:35:22.608Z,9.55
2022-11-29T08:36:25.505Z,9.56
2022-11-29T08:37:28.392Z,9.57
2022-11-29T08:38:31.064Z,9.58
2022-11-29T08:39:36.392Z,9.59
2022-11-29T08:40:39.475Z,9.58
2022-11-29T08:41:42.113Z,9.6
2022-11-29T08:42:45.089Z,9.59
2022-11-29T08:43:47.724Z,9.56
2022-11-29T08:44:50.447Z,9.53
2022-11-29T08:45:53.348Z,9.5
2022-11-29T08:46:56.036Z,9.5
2022-11-29T08:47:58.668Z,9.55
2022-11-29T08:49:01.900Z,9.58
2022-11-29T08:50:04.611Z,9.62
2022-11-29T08:51:07.305Z,9.65
2022-11-29T08:52:09.954Z,9.66
2022-11-29T08:53:13.198Z,9.68
2022-11-29T08:54:15.800Z,9.7
2022-11-29T08:55:18.489Z,9.71
2022-11-29T08:57:43.035Z,9.73
2022-11-29T08:58:45.672Z,9.75
2022-11-29T08:59:48.416Z,9.76
2022-11-29T09:00:51.212Z,9.76
2022-11-29T09:01:54.172Z,9.76
2022-11-29T09:02:57.137Z,9.76
2022-11-29T09:03:59.875Z,9.76
2022-11-29T09:05:02.541Z,9.75
2022-11-29T09:06:13.482Z,9.75
2022-11-29T09:07:15.711Z,9.77
2022-11-29T09:08:18.437Z,9.78
2022-11-29T09:09:21.062Z,9.8
2022-11-29T09:10:23.738Z,9.8
2022-11-29T09:11:26.962Z,9.78
2022-11-29T09:12:29.601Z,9.78
2022-11-29T09:13:32.272Z,9.77
2022-11-29T09:14:34.972Z,9.76
2022-11-29T09:15:37.594Z,9.77
2022-11-29T09:16:40.398Z,9.77
2022-11-29T09:17:44.661Z,9.79
2022-11-29T09:18:52.664Z,9.79
2022-11-29T09:19:58.564Z,9.79
2022-11-29T09:21:01.000Z,9.8
2022-11-29T09:22:08.230Z,9.8
2022-11-29T09:23:10.499Z,9.81
2022-11-29T09:24:14.170Z,9.8
2022-11-29T09:25:20.240Z,9.8
2022-11-29T09:26:22.872Z,9.8
2022-11-29T09:27:26.999Z,9.8
2022-11-29T09:28:40.615Z,9.8
2022-11-29T09:29:42.891Z,9.78
2022-11-29T09:30:48.201Z,9.79
2022-11-29T09:31:50.859Z,9.81
2022-11-29T09:32:53.798Z,9.8
2022-11-29T09:33:56.467Z,9.8
2022-11-29T09:34:59.102Z,9.81
2022-11-29T09:36:01.788Z,9.8
2022-11-29T09:37:07.551Z,9.8
2022-11-29T09:38:11.063Z,9.8
2022-11-29T09:39:13.790Z,9.8
2022-11-29T09:40:27.449Z,9.81
2022-11-29T09:41:28.876Z,9.8
2022-11-29T09:42:31.553Z,9.81
2022-11-29T09:43:34.977Z,9.83
2022-11-29T09:44:37.825Z,9.82
2022-11-29T09:45:40.654Z,9.82
2022-11-29T09:46:45.653Z,9.81
2022-11-29T09:48:02.252Z,9.83
2022-11-29T09:49:29.079Z,9.84
2022-11-29T09:50:31.074Z,9.84
2022-11-29T09:51:44.759Z,9.85
2022-11-29T09:52:48.813Z,9.85
2022-11-29T09:53:56.959Z,9.85
2022-11-29T09:54:59.156Z,9.86
2022-11-29T09:56:09.055Z,9.87
2022-11-29T09:57:11.390Z,9.87
2022-11-29T09:58:21.986Z,9.86
2022-11-29T09:59:24.264Z,9.86
2022-11-29T10:00:27.243Z,9.86
2022-11-29T10:01:30.223Z,9.86
2022-11-29T10:02:33.095Z,9.87
2022-11-29T10:03:35.868Z,9.88
2022-11-29T10:04:38.581Z,9.89
2022-11-29T10:05:41.456Z,9.9
2022-11-29T10:06:44.355Z,9.9
2022-11-29T10:07:47.144Z,9.9
2022-11-29T10:08:49.870Z,9.92
2022-11-29T10:09:53.117Z,9.91
2022-11-29T10:10:55.719Z,9.91
2022-11-29T10:11:58.947Z,9.92
2022-11-29T10:13:01.591Z,9.91
2022-11-29T10:14:04.267Z,9.91
2022-11-29T10:15:06.897Z,9.92
2022-11-29T10:16:09.775Z,9.91
2022-11-29T10:17:12.570Z,9.9
2022-11-29T10:18:15.230Z,9.89
2022-11-29T10:19:17.911Z,9.87
2022-11-29T10:20:20.558Z,9.87
2022-11-29T10:21:23.238Z,9.88
2022-11-29T10:22:25.841Z,9.89
2022-11-29T10:23:33.758Z,9.9
2022-11-29T10:24:35.787Z,9.88
2022-11-29T10:25:38.504Z,9.87
2022-11-29T10:26:41.377Z,9.89
2022-11-29T10:27:44.005Z,9.9
2022-11-29T10:28:46.654Z,9.91
2022-11-29T10:29:49.546Z,9.9
2022-11-29T10:30:52.600Z,9.9
2022-11-29T10:31:55.369Z,9.9
2022-11-29T10:32:58.080Z,9.9
2022-11-29T10:34:00.989Z,9.88
2022-11-29T10:35:04.223Z,9.89
2022-11-29T10:36:07.091Z,9.89
2022-11-29T10:37:09.760Z,9.9
2022-11-29T10:38:30.618Z,9.9
2022-11-29T10:39:33.804Z,9.89
2022-11-29T10:40:36.358Z,9.89
2022-11-29T10:41:39.197Z,9.9
2022-11-29T10:42:41.815Z,9.91
2022-11-29T10:43:44.497Z,9.92
2022-11-29T10:44:49.561Z,9.94
2022-11-29T10:45:52.169Z,9.94
2022-11-29T10:46:54.840Z,9.95
2022-11-29T10:47:57.528Z,9.97
2022-11-29T10:49:00.207Z,9.98
2022-11-29T10:50:03.147Z,9.97
2022-11-29T10:51:05.776Z,9.95
2022-11-29T10:52:08.721Z,9.96
2022-11-29T10:53:11.370Z,9.95
2022-11-29T10:54:14.035Z,9.96
2022-11-29T10:55:16.698Z,9.96
2022-11-29T10:56:19.388Z,9.97
2022-11-29T10:57:22.063Z,9.97
2022-11-29T10:58:29.177Z,9.98
2022-11-29T10:59:31.585Z,9.99
2022-11-29T11:00:34.206Z,10
2022-11-29T11:01:37.472Z,10.01
2022-11-29T11:02:40.175Z,10.02
2022-11-29T11:03:42.831Z,10.04
2022-11-29T11:04:46.909Z,10.02
2022-11-29T11:05:50.028Z,10.04
2022-11-29T11:06:52.768Z,10.04
2022-11-29T11:07:55.704Z,10.04
2022-11-29T11:08:58.612Z,10.02
2022-11-29T11:10:03.127Z,9.99
2022-11-29T11:11:05.317Z,10
2022-11-29T11:12:08.016Z,9.99
2022-11-29T11:13:10.749Z,9.99
2022-11-29T11:14:13.468Z,9.99
2022-11-29T11:15:16.122Z,9.99
2022-11-29T11:16:19.190Z,9.99
2022-11-29T11:17:22.897Z,9.98
2022-11-29T11:18:25.519Z,9.97
2022-11-29T11:19:28.438Z,9.99
2022-11-29T11:20:31.343Z,10.02
2022-11-29T11:21:34.592Z,10.02
2022-11-29T11:22:37.230Z,10.02
2022-11-29T11:23:43.250Z,10.03
2022-11-29T11:24:46.307Z,10.05
2022-11-29T11:25:49.412Z,10.06
2022-11-29T11:26:52.032Z,10.07
2022-11-29T11:27:55.498Z,10.09
2022-11-29T11:28:58.045Z,10.07
2022-11-29T11:30:00.703Z,10.04
2022-11-29T11:31:03.632Z,10.04
2022-11-29T11:32:06.335Z,10.06
2022-11-29T11:33:09.028Z,10.06
2022-11-29T11:34:16.327Z,10.07
2022-11-29T11:35:18.932Z,10.1
2022-11-29T11:36:21.571Z,10.11
2022-11-29T11:37:24.273Z,10.1
2022-11-29T11:38:26.939Z,10.11
2022-11-29T11:39:29.628Z,10.13
2022-11-29T11:40:32.552Z,10.14
2022-11-29T11:41:35.217Z,10.14
2022-11-29T11:42:45.997Z,10.09
2022-11-29T11:43:47.998Z,10.11
2022-11-29T11:44:50.679Z,10.14
2022-11-29T11:45:53.457Z,10.18
2022-11-29T11:46:56.458Z,10.2
2022-11-29T11:47:59.116Z,10.23
2022-11-29T11:49:01.771Z,10.27
2022-11-29T11:50:04.629Z,10.28
2022-11-29T11:51:07.302Z,10.32
2022-11-29T11:52:09.967Z,10.35
2022-11-29T11:53:12.633Z,10.38
2022-11-29T11:54:15.278Z,10.4
2022-11-29T11:55:17.944Z,10.36
2022-11-29T11:56:20.578Z,10.31
2022-11-29T11:57:23.706Z,10.33
2022-11-29T11:58:26.357Z,10.37
2022-11-29T11:59:29.008Z,10.42
2022-11-29T12:01:04.932Z,10.46
2022-11-29T12:01:54.124Z,10.49
2022-11-29T12:02:56.989Z,10.47
2022-11-29T12:04:02.391Z,10.49
2022-11-29T12:05:04.922Z,10.53
2022-11-29T12:06:08.152Z,10.49
2022-11-29T12:07:10.810Z,10.45
2022-11-29T12:08:13.793Z,10.4
2022-11-29T12:09:16.901Z,10.44
2022-11-29T12:10:19.581Z,10.48
2022-11-29T12:11:22.494Z,10.5
2022-11-29T12:12:25.145Z,10.47
2022-11-29T12:13:27.806Z,10.5
2022-11-29T12:14:31.174Z,10.51
2022-11-29T12:15:33.903Z,10.51
2022-11-29T12:16:36.668Z,10.5
2022-11-29T12:17:39.308Z,10.55
2022-11-29T12:18:41.952Z,10.56
2022-11-29T12:19:44.651Z,10.58
2022-11-29T12:20:47.328Z,10.59
2022-11-29T12:21:51.133Z,10.55
2022-11-29T12:22:53.790Z,10.45
2022-11-29T12:23:56.479Z,10.43
2022-11-29T12:24:59.148Z,10.44
2022-11-29T12:26:02.188Z,10.46
2022-11-29T12:27:05.220Z,10.46
2022-11-29T12:28:07.932Z,10.42
2022-11-29T12:29:10.566Z,10.45
2022-11-29T12:30:13.263Z,10.47
2022-11-29T12:31:16.132Z,10.52
2022-11-29T12:32:18.897Z,10.56
2022-11-29T12:33:21.742Z,10.6
2022-11-29T12:34:25.031Z,10.61
2022-11-29T12:35:27.313Z,10.61
2022-11-29T12:36:30.553Z,10.58
2022-11-29T12:37:33.233Z,10.53
2022-11-29T12:38:36.130Z,10.56
2022-11-29T12:44:34.807Z,10.48
2022-11-29T12:45:43.407Z,10.5
2022-11-29T12:47:41.623Z,10.53
2022-11-29T12:48:39.115Z,10.54
2022-11-29T12:49:41.676Z,10.57
2022-11-29T12:50:44.321Z,10.57
2022-11-29T12:51:46.986Z,10.59
2022-11-29T12:52:49.626Z,10.61
2022-11-29T12:53:52.870Z,10.6
2022-11-29T12:54:55.481Z,10.59
2022-11-29T12:57:41.183Z,10.66
2022-11-29T12:58:53.281Z,10.71
2022-11-29T12:59:55.454Z,10.71
2022-11-29T13:00:58.073Z,10.72
2022-11-29T13:02:00.856Z,10.72
2022-11-29T13:03:03.659Z,10.76
2022-11-29T13:04:06.413Z,10.76
2022-11-29T13:05:09.075Z,10.75
2022-11-29T13:06:11.677Z,10.77
2022-11-29T13:07:14.340Z,10.74
2022-11-29T13:08:16.997Z,10.75
2022-11-29T13:09:19.665Z,10.79
2022-11-29T13:10:22.287Z,10.8
2022-11-29T13:11:24.935Z,10.81
2022-11-29T13:12:27.649Z,10.83
2022-11-29T13:13:30.428Z,10.88
2022-11-29T13:14:43.999Z,10.82
2022-11-29T13:15:47.001Z,10.79
2022-11-29T13:16:49.970Z,10.79
2022-11-29T13:17:52.642Z,10.76
2022-11-29T13:18:55.299Z,10.64
2022-11-29T13:19:57.954Z,10.66
2022-11-29T13:21:00.632Z,10.7
2022-11-29T13:22:03.390Z,10.73
2022-11-29T13:23:07.675Z,10.75
2022-11-29T13:24:10.811Z,10.77
2022-11-29T13:25:13.675Z,10.79
2022-11-29T13:26:16.354Z,10.76
2022-11-29T13:27:19.058Z,10.66
2022-11-29T13:28:21.692Z,10.62
2022-11-29T13:29:24.334Z,10.61
2022-11-29T13:30:26.989Z,10.59
2022-11-29T13:31:29.869Z,10.57
2022-11-29T13:32:34.442Z,10.55
2022-11-29T13:33:37.142Z,10.53
2022-11-29T13:34:39.704Z,10.48
2022-11-29T13:35:42.587Z,10.44
2022-11-29T13:36:45.264Z,10.45
2022-11-29T13:37:55.692Z,10.37
2022-11-29T13:38:57.940Z,10.33
2022-11-29T13:40:00.507Z,10.24
2022-11-29T13:41:03.213Z,10.22
2022-11-29T13:42:06.452Z,10.2
2022-11-29T13:43:09.075Z,10.2
2022-11-29T13:44:11.733Z,10.16
2022-11-29T13:45:14.394Z,10.18
2022-11-29T13:46:17.599Z,10.2
2022-11-29T13:47:20.325Z,10.18
2022-11-29T13:48:28.486Z,10.07
2022-11-29T13:49:31.384Z,10.08
2022-11-29T13:50:33.988Z,10.03
2022-11-29T13:51:36.625Z,10
2022-11-29T13:52:39.313Z,9.99
2022-11-29T13:53:49.623Z,10.02
2022-11-29T13:54:52.523Z,10.04
2022-11-29T13:55:55.129Z,10.05
2022-11-29T13:56:57.777Z,10.03
2022-11-29T13:58:18.362Z,9.98
2022-11-29T13:59:20.113Z,9.98
2022-11-29T14:00:23.195Z,9.95
2022-11-29T14:01:25.898Z,9.96
2022-11-29T14:02:28.876Z,9.98
2022-11-29T14:03:31.604Z,10
2022-11-29T14:04:34.328Z,10
2022-11-29T14:05:38.408Z,9.99
2022-11-29T14:06:41.062Z,9.99
2022-11-29T14:07:43.851Z,10
2022-11-29T14:09:18.222Z,10
2022-11-29T14:10:08.623Z,10.04
2022-11-29T14:11:11.144Z,10.06
2022-11-29T14:12:13.801Z,10.11
2022-11-29T14:13:16.764Z,10.12